createdAt,value
2023-01-26T00:01:53.782Z,5.43
2023-01-26T00:05:17.301Z,4.35
2023-01-26T00:08:39.960Z,4.90
2023-01-26T00:12:02.172Z,4.38
2023-01-26T00:15:24.421Z,4.93
2023-01-26T00:18:46.764Z,4.18
2023-01-26T00:22:10.029Z,5.65
2023-01-26T00:25:32.091Z,5.05
2023-01-26T00:28:54.924Z,4.00
2023-01-26T00:32:16.680Z,4.68
2023-01-26T00:35:38.626Z,5.10
2023-01-26T00:39:02.888Z,4.50
2023-01-26T00:42:24.699Z,4.57
2023-01-26T00:45:46.911Z,4.18
2023-01-26T00:49:09.063Z,5.45
2023-01-26T00:52:30.991Z,4.72
2023-01-26T00:55:56.242Z,4.18
2023-01-26T00:59:18.219Z,5.18
2023-01-26T01:02:40.416Z,4.85
2023-01-26T01:06:02.365Z,5.13
2023-01-26T01:09:24.364Z,5.00
2023-01-26T01:12:47.749Z,5.22
2023-01-26T01:16:12.363Z,4.80
2023-01-26T01:19:34.233Z,4.78
2023-01-26T01:22:56.018Z,4.32
2023-01-26T01:26:18.209Z,4.03
2023-01-26T01:29:41.952Z,4.85
2023-01-26T01:33:03.754Z,3.72
2023-01-26T01:36:26.137Z,4.50
2023-01-26T01:39:47.929Z,4.35
2023-01-26T01:43:12.962Z,3.85
2023-01-26T01:46:38.018Z,4.32
2023-01-26T01:49:59.954Z,3.03
2023-01-26T01:53:25.937Z,4.25
2023-01-26T01:56:51.830Z,3.17
2023-01-26T02:00:16.510Z,4.10
2023-01-26T02:03:40.434Z,3.92
2023-01-26T02:07:02.869Z,4.95
2023-01-26T02:10:26.209Z,4.40
2023-01-26T02:13:50.188Z,4.22
2023-01-26T02:17:12.176Z,3.60
2023-01-26T02:20:42.799Z,4.07
2023-01-26T02:24:12.231Z,4.97
2023-01-26T02:30:58.132Z,4.03
2023-01-26T02:34:19.832Z,5.88
2023-01-26T02:37:41.867Z,5.43
2023-01-26T02:41:07.621Z,6.13
2023-01-26T02:44:31.572Z,6.57
2023-01-26T02:47:53.971Z,6.78
2023-01-26T02:51:15.627Z,6.53
2023-01-26T02:55:06.897Z,9.45
2023-01-26T02:58:28.914Z,6.78
2023-01-26T03:01:54.179Z,7.55
2023-01-26T03:05:15.946Z,8.02
2023-01-26T03:08:37.886Z,10.15
2023-01-26T03:11:59.724Z,7.35
2023-01-26T03:15:43.008Z,10.18
2023-01-26T03:19:24.617Z,9.65
2023-01-26T03:23:09.163Z,10.30
2023-01-26T03:26:48.335Z,10.20
2023-01-26T03:33:33.433Z,9.82
2023-01-26T03:36:56.680Z,9.98
2023-01-26T03:40:36.053Z,10.68
2023-01-26T03:44:15.736Z,12.35
2023-01-26T03:47:56.787Z,11.85
2023-01-26T03:51:35.970Z,10.77
2023-01-26T03:55:16.899Z,9.93
2023-01-26T03:58:39.000Z,10.25
2023-01-26T04:02:18.357Z,11.23
2023-01-26T04:06:15.501Z,11.45
2023-01-26T04:09:39.741Z,10.75
2023-01-26T04:13:20.566Z,11.38
2023-01-26T04:16:59.654Z,11.25
2023-01-26T04:20:38.955Z,11.73
2023-01-26T04:24:01.951Z,10.20
2023-01-26T04:27:24.156Z,10.35
2023-01-26T04:30:47.381Z,10.18
2023-01-26T04:34:13.660Z,11.95
2023-01-26T04:37:36.717Z,12.13
2023-01-26T04:40:58.567Z,13.40
2023-01-26T04:44:20.647Z,14.05
2023-01-26T04:47:44.145Z,15.00
2023-01-26T04:51:08.221Z,11.05
2023-01-26T04:54:30.209Z,12.40
2023-01-26T04:57:51.779Z,14.27
2023-01-26T05:01:14.208Z,17.38
2023-01-26T05:04:37.576Z,19.42
2023-01-26T05:07:59.447Z,17.45
2023-01-26T05:11:21.264Z,17.15
2023-01-26T05:14:43.161Z,13.30
2023-01-26T05:18:05.451Z,21.10
2023-01-26T05:21:28.663Z,13.90
2023-01-26T05:24:50.905Z,15.63
2023-01-26T05:28:13.109Z,14.95
2023-01-26T05:31:35.174Z,14.38
2023-01-26T05:34:57.591Z,13.57
2023-01-26T05:38:21.953Z,15.13
2023-01-26T05:41:44.061Z,13.30
2023-01-26T05:45:07.089Z,15.68
2023-01-26T05:48:29.039Z,15.20
2023-01-26T05:51:50.963Z,15.45
2023-01-26T05:55:14.316Z,14.52
2023-01-26T05:58:35.975Z,15.60
2023-01-26T06:01:57.860Z,14.15
2023-01-26T06:05:20.089Z,12.10
2023-01-26T06:08:42.218Z,15.70
2023-01-26T06:12:05.940Z,13.85
2023-01-26T06:15:28.196Z,11.95
2023-01-26T06:18:50.481Z,13.13
2023-01-26T06:22:13.861Z,18.13
2023-01-26T06:25:36.171Z,11.98
2023-01-26T06:28:59.776Z,12.65
2023-01-26T06:32:21.838Z,10.95
2023-01-26T06:35:43.647Z,12.35
2023-01-26T06:39:05.805Z,10.75
2023-01-26T06:42:27.568Z,8.73
2023-01-26T06:45:50.869Z,9.23
2023-01-26T06:49:17.536Z,10.45
2023-01-26T06:52:44.356Z,8.85
2023-01-26T06:56:06.605Z,9.93
2023-01-26T06:59:28.820Z,10.00
2023-01-26T07:02:52.297Z,12.65
2023-01-26T07:06:14.105Z,14.65
2023-01-26T07:09:35.705Z,11.30
2023-01-26T07:12:57.482Z,9.50
2023-01-26T07:16:20.161Z,7.75
2023-01-26T07:19:43.669Z,11.50
2023-01-26T07:23:05.760Z,12.65
2023-01-26T07:26:27.953Z,13.40
2023-01-26T07:29:50.318Z,15.93
2023-01-26T07:33:12.480Z,10.40
2023-01-26T07:36:35.903Z,8.07
2023-01-26T07:39:57.553Z,8.50
2023-01-26T07:43:19.867Z,7.07
2023-01-26T07:46:43.603Z,6.60
2023-01-26T07:50:07.451Z,5.95
2023-01-26T07:53:31.163Z,6.03
2023-01-26T07:56:54.694Z,5.50
2023-01-26T08:00:17.992Z,6.55
2023-01-26T08:03:40.798Z,7.60
2023-01-26T08:07:02.872Z,7.70
2023-01-26T08:10:26.736Z,6.70
2023-01-26T08:13:48.821Z,5.88
2023-01-26T08:17:10.889Z,7.70
2023-01-26T08:20:33.128Z,8.90
2023-01-26T08:23:55.733Z,6.53
2023-01-26T08:27:18.981Z,6.80
2023-01-26T08:30:41.250Z,8.35
2023-01-26T08:34:03.086Z,6.70
2023-01-26T08:37:25.058Z,5.75
2023-01-26T08:40:53.073Z,5.50
2023-01-26T08:44:16.818Z,5.03
2023-01-26T08:47:39.319Z,5.15
2023-01-26T08:51:02.587Z,4.20
2023-01-26T08:54:24.409Z,5.38
2023-01-26T08:57:47.272Z,4.72
2023-01-26T09:01:14.973Z,4.18
2023-01-26T09:04:38.718Z,5.63
2023-01-26T09:08:00.672Z,7.57
2023-01-26T09:11:22.573Z,5.00
2023-01-26T09:14:44.707Z,4.60
2023-01-26T09:18:08.157Z,4.97
2023-01-26T09:21:30.274Z,6.60
2023-01-26T09:24:52.055Z,5.15
2023-01-26T09:28:14.244Z,4.38
2023-01-26T09:31:36.395Z,5.55
2023-01-26T09:34:59.861Z,6.15
2023-01-26T09:38:21.936Z,7.22
2023-01-26T09:42:06.191Z,11.05
2023-01-26T09:45:32.991Z,8.57
2023-01-26T09:49:06.436Z,5.55
2023-01-26T09:52:34.618Z,5.70
2023-01-26T09:55:57.333Z,5.03
2023-01-26T09:59:29.537Z,5.32
2023-01-26T10:03:02.112Z,4.07
2023-01-26T10:06:28.474Z,5.15
2023-01-26T10:09:53.929Z,6.00
2023-01-26T10:13:17.960Z,6.75
2023-01-26T10:16:40.202Z,5.75
2023-01-26T10:20:08.238Z,4.45
2023-01-26T10:23:32.056Z,4.03
2023-01-26T10:26:59.874Z,4.47
2023-01-26T10:30:22.336Z,4.00
2023-01-26T10:33:53.213Z,5.90
2023-01-26T10:37:22.707Z,13.43
2023-01-26T10:40:45.943Z,8.57
2023-01-26T10:44:25.826Z,6.45
2023-01-26T10:48:04.620Z,5.65
2023-01-26T10:51:29.753Z,6.38
2023-01-26T10:55:10.632Z,13.90
2023-01-26T10:58:48.135Z,17.60
2023-01-26T11:02:24.222Z,12.80
2023-01-26T11:05:48.203Z,13.65
2023-01-26T11:09:12.683Z,8.07
2023-01-26T11:12:34.624Z,6.10
2023-01-26T11:16:05.016Z,5.30
2023-01-26T11:19:49.396Z,7.70
2023-01-26T11:23:20.219Z,5.10
2023-01-26T11:27:19.312Z,5.28
2023-01-26T11:30:57.670Z,5.53
2023-01-26T11:34:30.693Z,5.07
2023-01-26T11:38:03.145Z,5.40
2023-01-26T11:41:35.828Z,4.95
2023-01-26T11:45:10.079Z,5.13
2023-01-26T11:48:45.285Z,7.95
2023-01-26T11:52:15.060Z,12.75
2023-01-26T11:55:55.901Z,25.45
2023-01-26T11:59:20.557Z,11.60
2023-01-26T12:02:45.020Z,7.85
2023-01-26T12:06:09.131Z,11.20
2023-01-26T12:09:38.146Z,9.05
2023-01-26T12:13:09.533Z,11.30
2023-01-26T12:16:42.792Z,9.77
2023-01-26T12:20:21.480Z,15.30
2023-01-26T12:23:52.019Z,16.70
2023-01-26T12:27:21.274Z,23.45
2023-01-26T12:30:55.125Z,16.35
2023-01-26T12:34:17.738Z,10.73
2023-01-26T12:37:49.364Z,11.73
2023-01-26T12:41:20.365Z,8.73
2023-01-26T12:44:43.984Z,6.30
2023-01-26T12:48:15.632Z,6.93
2023-01-26T12:51:42.303Z,8.82
2023-01-26T12:55:14.037Z,5.93
2023-01-26T12:58:39.357Z,4.95
2023-01-26T13:02:03.022Z,7.00
2023-01-26T13:05:30.095Z,6.15
2023-01-26T13:09:01.936Z,6.18
2023-01-26T13:12:48.628Z,6.25
2023-01-26T13:16:43.906Z,6.07
2023-01-26T13:20:24.830Z,6.75
2023-01-26T13:23:48.201Z,5.47
2023-01-26T13:27:29.852Z,11.27
2023-01-26T13:31:04.766Z,6.70
2023-01-26T13:34:31.999Z,6.78
2023-01-26T13:38:00.471Z,9.25
2023-01-26T13:41:24.049Z,6.45
2023-01-26T13:44:50.652Z,5.63
2023-01-26T13:48:17.568Z,6.70
2023-01-26T13:51:45.018Z,7.25
2023-01-26T13:55:23.655Z,6.03
2023-01-26T13:58:47.024Z,5.63
2023-01-26T14:02:22.147Z,4.75
2023-01-26T14:05:44.198Z,4.70
2023-01-26T14:09:09.045Z,5.60
2023-01-26T14:12:34.438Z,5.18
2023-01-26T14:16:04.826Z,5.68
2023-01-26T14:19:29.073Z,3.78
2023-01-26T14:23:04.981Z,4.10
2023-01-26T14:26:32.393Z,3.85
2023-01-26T14:29:54.303Z,5.32
2023-01-26T14:33:19.335Z,6.10
2023-01-26T14:36:41.151Z,5.35
2023-01-26T14:40:22.667Z,6.05
2023-01-26T14:43:44.765Z,4.28
2023-01-26T14:47:11.439Z,3.30
2023-01-26T14:50:36.854Z,4.13
2023-01-26T14:54:01.915Z,3.80
2023-01-26T14:57:26.953Z,6.53
2023-01-26T15:00:50.340Z,7.28
2023-01-26T15:04:24.043Z,7.85
2023-01-26T15:07:50.461Z,8.50
2023-01-26T15:11:30.269Z,10.68
2023-01-26T15:14:57.051Z,9.38
2023-01-26T15:18:21.545Z,28.70
2023-01-26T15:21:44.514Z,28.70
2023-01-26T15:25:19.945Z,23.13
2023-01-26T15:28:42.252Z,16.42
2023-01-26T15:32:04.818Z,13.73
2023-01-26T15:35:28.293Z,9.93
2023-01-26T15:38:50.541Z,10.88
2023-01-26T15:42:16.306Z,10.57
2023-01-26T15:45:39.410Z,17.17
2023-01-26T15:49:01.194Z,17.00
2023-01-26T15:52:26.577Z,21.85
2023-01-26T15:55:52.947Z,14.30
2023-01-26T15:59:16.080Z,19.60
2023-01-26T16:02:37.664Z,21.73
2023-01-26T16:06:00.059Z,14.70
2023-01-26T16:09:22.114Z,10.20
2023-01-26T16:12:44.062Z,15.00
2023-01-26T16:16:10.144Z,23.30
2023-01-26T16:19:35.599Z,9.45
2023-01-26T16:22:57.623Z,6.75
2023-01-26T16:26:20.711Z,7.47
2023-01-26T16:29:42.816Z,12.15
2023-01-26T16:33:06.242Z,9.45
2023-01-26T16:36:28.424Z,9.90
2023-01-26T16:39:50.413Z,9.38
2023-01-26T16:43:19.836Z,13.32
2023-01-26T16:46:45.702Z,12.20
2023-01-26T16:50:09.891Z,14.68
2023-01-26T16:53:35.249Z,15.65
2023-01-26T16:56:57.719Z,12.85
2023-01-26T17:00:21.658Z,10.45
2023-01-26T17:03:43.741Z,11.30
2023-01-26T17:07:07.005Z,7.95
2023-01-26T17:10:29.321Z,8.10
2023-01-26T17:13:51.746Z,7.85
2023-01-26T17:17:13.779Z,7.30
2023-01-26T17:20:35.708Z,7.93
2023-01-26T17:23:59.836Z,8.20
2023-01-26T17:27:21.795Z,10.25
2023-01-26T17:30:43.898Z,8.88
2023-01-26T17:34:06.500Z,7.97
2023-01-26T17:37:30.976Z,8.20
2023-01-26T17:40:57.601Z,9.10
2023-01-26T17:44:19.343Z,9.57
2023-01-26T17:47:41.242Z,14.27
2023-01-26T17:51:06.699Z,13.27
2023-01-26T17:54:28.685Z,11.45
2023-01-26T17:57:52.158Z,12.82
2023-01-26T18:01:14.894Z,7.32
2023-01-26T18:04:36.993Z,7.78
2023-01-26T18:07:59.007Z,6.63
2023-01-26T18:11:21.252Z,6.72
2023-01-26T18:14:45.093Z,7.82
2023-01-26T18:18:07.845Z,7.07
2023-01-26T18:21:31.797Z,5.45
2023-01-26T18:24:53.605Z,6.95
2023-01-26T18:28:16.005Z,5.13
2023-01-26T18:31:41.818Z,3.83
2023-01-26T18:35:04.183Z,5.80
2023-01-26T18:38:27.726Z,7.65
2023-01-26T18:41:49.895Z,4.70
2023-01-26T18:45:12.864Z,5.63
2023-01-26T18:48:39.913Z,8.57
2023-01-26T18:52:03.077Z,4.88
2023-01-26T18:55:24.853Z,15.75
2023-01-26T18:58:47.140Z,6.60
2023-01-26T19:02:08.967Z,8.48
2023-01-26T19:05:33.054Z,7.80
2023-01-26T19:08:58.919Z,5.85
2023-01-26T19:12:21.025Z,4.07
2023-01-26T19:15:47.548Z,4.68
2023-01-26T19:19:09.389Z,4.50
2023-01-26T19:22:32.574Z,3.88
2023-01-26T19:25:55.162Z,3.53
2023-01-26T19:29:17.055Z,3.13
2023-01-26T19:32:58.945Z,3.75
2023-01-26T19:36:21.619Z,3.58
2023-01-26T19:39:44.810Z,3.67
2023-01-26T19:43:09.516Z,4.35
2023-01-26T19:46:31.265Z,3.75
2023-01-26T19:49:53.464Z,4.43
2023-01-26T19:53:15.241Z,6.85
2023-01-26T19:56:38.686Z,4.80
2023-01-26T20:00:00.682Z,5.60
2023-01-26T20:03:24.470Z,5.32
2023-01-26T20:06:50.137Z,4.88
2023-01-26T20:10:13.150Z,4.88
2023-01-26T20:13:37.693Z,4.03
2023-01-26T20:17:00.119Z,4.13
2023-01-26T20:20:22.001Z,2.72
2023-01-26T20:23:53.962Z,2.65
2023-01-26T20:27:17.131Z,2.97
2023-01-26T20:30:41.251Z,3.15
2023-01-26T20:34:03.164Z,4.15
2023-01-26T20:37:25.355Z,4.13
2023-01-26T20:40:47.126Z,3.88
2023-01-26T20:44:09.613Z,3.65
2023-01-26T20:47:34.187Z,3.10
2023-01-26T20:50:56.287Z,3.35
2023-01-26T20:54:18.351Z,3.70
2023-01-26T20:57:40.557Z,3.42
2023-01-26T21:01:05.330Z,3.97
2023-01-26T21:04:30.849Z,1.92
2023-01-26T21:07:52.686Z,2.58
2023-01-26T21:11:16.897Z,1.88
2023-01-26T21:14:38.969Z,2.47
2023-01-26T21:18:00.698Z,1.77
2023-01-26T21:21:24.358Z,3.00
2023-01-26T21:24:46.616Z,2.30
2023-01-26T21:28:08.427Z,2.55
2023-01-26T21:31:33.186Z,2.65
2023-01-26T21:34:55.170Z,2.10
2023-01-26T21:38:18.641Z,1.80
2023-01-26T21:41:59.421Z,1.92
2023-01-26T21:45:39.147Z,1.42
2023-01-26T21:49:01.085Z,1.58
2023-01-26T21:52:45.570Z,1.67
2023-01-26T21:56:09.166Z,1.33
2023-01-26T21:59:31.783Z,1.13
2023-01-26T22:02:54.668Z,1.30
2023-01-26T22:06:16.580Z,1.30
2023-01-26T22:09:39.499Z,0.90
2023-01-26T22:13:02.941Z,1.08
2023-01-26T22:16:25.306Z,1.35
2023-01-26T22:19:47.443Z,1.40
2023-01-26T22:23:09.087Z,1.63
2023-01-26T22:26:31.199Z,2.20
2023-01-26T22:29:54.327Z,1.27
2023-01-26T22:33:16.353Z,1.27
2023-01-26T22:36:38.398Z,1.20
2023-01-26T22:40:00.497Z,1.00
2023-01-26T22:43:22.673Z,0.90
2023-01-26T22:46:46.206Z,1.00
2023-01-26T22:50:10.470Z,1.10
2023-01-26T22:53:32.515Z,1.20
2023-01-26T22:56:54.769Z,0.90
2023-01-26T23:00:16.948Z,1.20
2023-01-26T23:03:41.327Z,1.15
2023-01-26T23:07:03.535Z,1.20
2023-01-26T23:10:25.636Z,1.08
2023-01-26T23:13:50.343Z,1.00
2023-01-26T23:17:12.906Z,0.80
2023-01-26T23:20:36.303Z,1.13
2023-01-26T23:23:59.347Z,1.20
2023-01-26T23:27:21.185Z,1.27
2023-01-26T23:30:42.806Z,1.02
2023-01-26T23:34:04.792Z,1.40
2023-01-26T23:37:27.963Z,1.10
2023-01-26T23:40:50.862Z,1.92
2023-01-26T23:44:13.305Z,1.20
2023-01-26T23:47:35.221Z,1.33
2023-01-26T23:50:57.730Z,0.85
2023-01-26T23:54:21.116Z,1.05
2023-01-26T23:57:43.242Z,1.20
